sensor_id;sensor_type;location;lat;lon;timestamp;P1;durP1;ratioP1;P2;durP2;ratioP2
22737;SDS011;11536;50.860;4.286;2024-02-26T00:01:42;2.85;;;0.70;;
22737;SDS011;11536;50.860;4.286;2024-02-26T00:04:11;4.43;;;0.85;;
22737;SDS011;11536;50.860;4.286;2024-02-26T00:06:37;2.53;;;0.80;;
22737;SDS011;11536;50.860;4.286;2024-02-26T00:09:09;1.63;;;0.63;;
22737;SDS011;11536;50.860;4.286;2024-02-26T00:11:38;2.05;;;0.90;;
22737;SDS011;11536;50.860;4.286;2024-02-26T00:14:04;2.35;;;0.68;;
22737;SDS011;11536;50.860;4.286;2024-02-26T00:16:30;1.85;;;0.88;;
22737;SDS011;11536;50.860;4.286;2024-02-26T00:18:56;3.20;;;0.88;;
22737;SDS011;11536;50.860;4.286;2024-02-26T00:21:21;2.70;;;0.77;;
22737;SDS011;11536;50.860;4.286;2024-02-26T00:23:47;3.85;;;0.88;;
22737;SDS011;11536;50.860;4.286;2024-02-26T00:26:15;3.38;;;0.90;;
22737;SDS011;11536;50.860;4.286;2024-02-26T00:28:40;2.20;;;0.88;;
22737;SDS011;11536;50.860;4.286;2024-02-26T00:31:06;2.50;;;0.77;;
22737;SDS011;11536;50.860;4.286;2024-02-26T00:33:31;2.38;;;0.93;;
22737;SDS011;11536;50.860;4.286;2024-02-26T00:35:57;4.38;;;0.90;;
22737;SDS011;11536;50.860;4.286;2024-02-26T00:38:23;2.10;;;0.60;;
22737;SDS011;11536;50.860;4.286;2024-02-26T00:40:48;3.45;;;0.90;;
22737;SDS011;11536;50.860;4.286;2024-02-26T00:43:14;1.92;;;0.90;;
22737;SDS011;11536;50.860;4.286;2024-02-26T00:45:39;1.67;;;0.60;;
22737;SDS011;11536;50.860;4.286;2024-02-26T00:48:05;2.35;;;0.70;;
22737;SDS011;11536;50.860;4.286;2024-02-26T00:50:32;5.30;;;0.93;;
22737;SDS011;11536;50.860;4.286;2024-02-26T00:52:58;3.35;;;1.00;;
22737;SDS011;11536;50.860;4.286;2024-02-26T00:55:24;2.17;;;0.80;;
22737;SDS011;11536;50.860;4.286;2024-02-26T00:57:50;2.22;;;0.65;;
22737;SDS011;11536;50.860;4.286;2024-02-26T01:00:16;1.77;;;0.65;;
22737;SDS011;11536;50.860;4.286;2024-02-26T01:02:41;3.33;;;0.80;;
22737;SDS011;11536;50.860;4.286;2024-02-26T01:05:08;2.05;;;0.60;;
22737;SDS011;11536;50.860;4.286;2024-02-26T01:07:36;2.00;;;0.70;;
22737;SDS011;11536;50.860;4.286;2024-02-26T01:10:02;2.10;;;0.80;;
22737;SDS011;11536;50.860;4.286;2024-02-26T01:12:28;2.33;;;0.65;;
22737;SDS011;11536;50.860;4.286;2024-02-26T01:14:54;3.10;;;0.70;;
22737;SDS011;11536;50.860;4.286;2024-02-26T01:17:20;2.90;;;0.80;;
22737;SDS011;11536;50.860;4.286;2024-02-26T01:19:46;3.95;;;0.80;;
22737;SDS011;11536;50.860;4.286;2024-02-26T01:22:11;1.77;;;0.70;;
22737;SDS011;11536;50.860;4.286;2024-02-26T01:24:37;2.03;;;0.65;;
22737;SDS011;11536;50.860;4.286;2024-02-26T01:27:02;3.72;;;0.68;;
22737;SDS011;11536;50.860;4.286;2024-02-26T01:29:28;1.33;;;0.60;;
22737;SDS011;11536;50.860;4.286;2024-02-26T01:31:54;3.72;;;0.93;;
22737;SDS011;11536;50.860;4.286;2024-02-26T01:34:20;3.42;;;0.90;;
22737;SDS011;11536;50.860;4.286;2024-02-26T01:36:45;1.90;;;0.80;;
22737;SDS011;11536;50.860;4.286;2024-02-26T01:39:11;2.38;;;0.82;;
22737;SDS011;11536;50.860;4.286;2024-02-26T01:41:37;2.47;;;0.85;;
22737;SDS011;11536;50.860;4.286;2024-02-26T01:44:04;2.53;;;0.70;;
22737;SDS011;11536;50.860;4.286;2024-02-26T01:46:30;2.00;;;0.75;;
22737;SDS011;11536;50.860;4.286;2024-02-26T01:48:58;2.08;;;0.68;;
22737;SDS011;11536;50.860;4.286;2024-02-26T01:51:24;2.55;;;0.80;;
22737;SDS011;11536;50.860;4.286;2024-02-26T01:53:50;2.40;;;0.80;;
22737;SDS011;11536;50.860;4.286;2024-02-26T01:56:16;1.38;;;0.50;;
22737;SDS011;11536;50.860;4.286;2024-02-26T01:58:43;2.55;;;0.80;;
22737;SDS011;11536;50.860;4.286;2024-02-26T02:01:09;1.98;;;0.70;;
22737;SDS011;11536;50.860;4.286;2024-02-26T02:03:36;1.73;;;0.60;;
22737;SDS011;11536;50.860;4.286;2024-02-26T02:06:02;2.65;;;0.77;;
22737;SDS011;11536;50.860;4.286;2024-02-26T02:08:29;2.67;;;0.70;;
22737;SDS011;11536;50.860;4.286;2024-02-26T02:10:55;3.70;;;0.68;;
22737;SDS011;11536;50.860;4.286;2024-02-26T02:13:21;2.33;;;0.70;;
22737;SDS011;11536;50.860;4.286;2024-02-26T02:15:47;2.03;;;0.70;;
22737;SDS011;11536;50.860;4.286;2024-02-26T02:18:12;1.92;;;0.50;;
22737;SDS011;11536;50.860;4.286;2024-02-26T02:20:41;1.85;;;0.50;;
22737;SDS011;11536;50.860;4.286;2024-02-26T02:23:06;1.40;;;0.50;;
22737;SDS011;11536;50.860;4.286;2024-02-26T02:25:32;1.02;;;0.50;;
22737;SDS011;11536;50.860;4.286;2024-02-26T02:27:57;1.58;;;0.50;;
22737;SDS011;11536;50.860;4.286;2024-02-26T02:30:24;2.90;;;0.70;;
22737;SDS011;11536;50.860;4.286;2024-02-26T02:32:52;3.45;;;0.65;;
22737;SDS011;11536;50.860;4.286;2024-02-26T02:35:18;2.50;;;0.57;;
22737;SDS011;11536;50.860;4.286;2024-02-26T02:37:44;1.58;;;0.57;;
22737;SDS011;11536;50.860;4.286;2024-02-26T02:40:10;1.80;;;0.50;;
22737;SDS011;11536;50.860;4.286;2024-02-26T02:42:35;3.45;;;0.47;;
22737;SDS011;11536;50.860;4.286;2024-02-26T02:45:01;1.33;;;0.40;;
22737;SDS011;11536;50.860;4.286;2024-02-26T02:47:27;2.10;;;0.60;;
22737;SDS011;11536;50.860;4.286;2024-02-26T02:49:52;1.77;;;0.55;;
22737;SDS011;11536;50.860;4.286;2024-02-26T02:52:18;2.28;;;0.60;;
22737;SDS011;11536;50.860;4.286;2024-02-26T02:54:43;2.55;;;0.60;;
22737;SDS011;11536;50.860;4.286;2024-02-26T02:57:09;2.80;;;0.60;;
22737;SDS011;11536;50.860;4.286;2024-02-26T02:59:35;1.70;;;0.38;;
22737;SDS011;11536;50.860;4.286;2024-02-26T03:02:02;2.63;;;0.70;;
22737;SDS011;11536;50.860;4.286;2024-02-26T03:04:28;3.00;;;0.60;;
22737;SDS011;11536;50.860;4.286;2024-02-26T03:06:54;2.33;;;0.70;;
22737;SDS011;11536;50.860;4.286;2024-02-26T03:09:20;1.88;;;0.50;;
22737;SDS011;11536;50.860;4.286;2024-02-26T03:11:45;1.35;;;0.50;;
22737;SDS011;11536;50.860;4.286;2024-02-26T03:14:11;1.80;;;0.50;;
22737;SDS011;11536;50.860;4.286;2024-02-26T03:16:37;1.55;;;0.52;;
22737;SDS011;11536;50.860;4.286;2024-02-26T03:19:02;1.75;;;0.68;;
22737;SDS011;11536;50.860;4.286;2024-02-26T03:21:28;1.75;;;0.50;;
22737;SDS011;11536;50.860;4.286;2024-02-26T03:23:54;3.88;;;0.80;;
22737;SDS011;11536;50.860;4.286;2024-02-26T03:26:19;3.88;;;0.68;;
22737;SDS011;11536;50.860;4.286;2024-02-26T03:28:46;1.23;;;0.52;;
22737;SDS011;11536;50.860;4.286;2024-02-26T03:31:12;1.83;;;0.50;;
22737;SDS011;11536;50.860;4.286;2024-02-26T03:33:38;3.65;;;0.60;;
22737;SDS011;11536;50.860;4.286;2024-02-26T03:36:03;1.70;;;0.60;;
22737;SDS011;11536;50.860;4.286;2024-02-26T03:38:29;1.88;;;0.60;;
22737;SDS011;11536;50.860;4.286;2024-02-26T03:40:55;2.08;;;0.52;;
22737;SDS011;11536;50.860;4.286;2024-02-26T03:43:21;2.60;;;0.68;;
22737;SDS011;11536;50.860;4.286;2024-02-26T03:45:47;1.85;;;0.60;;
22737;SDS011;11536;50.860;4.286;2024-02-26T03:48:12;1.83;;;0.50;;
22737;SDS011;11536;50.860;4.286;2024-02-26T03:50:38;4.95;;;0.73;;
22737;SDS011;11536;50.860;4.286;2024-02-26T03:53:03;2.53;;;0.68;;
22737;SDS011;11536;50.860;4.286;2024-02-26T03:55:29;1.92;;;0.70;;
22737;SDS011;11536;50.860;4.286;2024-02-26T03:57:55;2.50;;;0.60;;
22737;SDS011;11536;50.860;4.286;2024-02-26T04:00:21;3.95;;;0.93;;
22737;SDS011;11536;50.860;4.286;2024-02-26T04:02:47;3.72;;;1.33;;
22737;SDS011;11536;50.860;4.286;2024-02-26T04:05:13;3.85;;;0.80;;
22737;SDS011;11536;50.860;4.286;2024-02-26T04:07:39;2.08;;;0.80;;
22737;SDS011;11536;50.860;4.286;2024-02-26T04:10:11;2.95;;;1.05;;
22737;SDS011;11536;50.860;4.286;2024-02-26T04:12:41;3.63;;;1.10;;
22737;SDS011;11536;50.860;4.286;2024-02-26T04:15:07;3.25;;;1.35;;
22737;SDS011;11536;50.860;4.286;2024-02-26T04:17:34;2.80;;;1.00;;
22737;SDS011;11536;50.860;4.286;2024-02-26T04:20:00;3.30;;;1.40;;
22737;SDS011;11536;50.860;4.286;2024-02-26T04:22:25;3.67;;;1.40;;
22737;SDS011;11536;50.860;4.286;2024-02-26T04:24:51;5.70;;;1.98;;
22737;SDS011;11536;50.860;4.286;2024-02-26T04:27:17;4.78;;;1.80;;
22737;SDS011;11536;50.860;4.286;2024-02-26T04:29:42;4.70;;;2.20;;
22737;SDS011;11536;50.860;4.286;2024-02-26T04:32:08;4.13;;;1.63;;
22737;SDS011;11536;50.860;4.286;2024-02-26T04:34:33;4.75;;;2.28;;
22737;SDS011;11536;50.860;4.286;2024-02-26T04:36:59;4.72;;;2.10;;
22737;SDS011;11536;50.860;4.286;2024-02-26T04:39:25;4.82;;;1.98;;
22737;SDS011;11536;50.860;4.286;2024-02-26T04:41:51;5.00;;;2.10;;
22737;SDS011;11536;50.860;4.286;2024-02-26T04:44:16;4.57;;;2.08;;
22737;SDS011;11536;50.860;4.286;2024-02-26T04:46:42;5.47;;;2.20;;
22737;SDS011;11536;50.860;4.286;2024-02-26T04:49:08;6.18;;;2.10;;
22737;SDS011;11536;50.860;4.286;2024-02-26T04:51:34;5.18;;;1.90;;
22737;SDS011;11536;50.860;4.286;2024-02-26T04:53:59;4.97;;;2.22;;
22737;SDS011;11536;50.860;4.286;2024-02-26T04:56:25;5.38;;;2.20;;
22737;SDS011;11536;50.860;4.286;2024-02-26T04:58:51;4.70;;;2.13;;
22737;SDS011;11536;50.860;4.286;2024-02-26T05:01:16;8.30;;;2.53;;
22737;SDS011;11536;50.860;4.286;2024-02-26T05:03:43;5.57;;;2.65;;
22737;SDS011;11536;50.860;4.286;2024-02-26T05:06:09;6.47;;;2.80;;
22737;SDS011;11536;50.860;4.286;2024-02-26T05:08:35;6.57;;;2.88;;
22737;SDS011;11536;50.860;4.286;2024-02-26T05:11:01;5.03;;;2.20;;
22737;SDS011;11536;50.860;4.286;2024-02-26T05:13:31;5.15;;;2.50;;
22737;SDS011;11536;50.860;4.286;2024-02-26T05:15:56;6.47;;;2.83;;
22737;SDS011;11536;50.860;4.286;2024-02-26T05:18:22;5.53;;;2.75;;
22737;SDS011;11536;50.860;4.286;2024-02-26T05:20:49;7.32;;;2.88;;
22737;SDS011;11536;50.860;4.286;2024-02-26T05:23:14;6.10;;;2.60;;
22737;SDS011;11536;50.860;4.286;2024-02-26T05:25:40;6.43;;;2.88;;
22737;SDS011;11536;50.860;4.286;2024-02-26T05:28:06;8.20;;;3.60;;
22737;SDS011;11536;50.860;4.286;2024-02-26T05:30:32;6.80;;;3.20;;
22737;SDS011;11536;50.860;4.286;2024-02-26T05:32:58;6.40;;;3.22;;
22737;SDS011;11536;50.860;4.286;2024-02-26T05:35:24;8.13;;;3.58;;
22737;SDS011;11536;50.860;4.286;2024-02-26T05:37:50;8.63;;;4.00;;
22737;SDS011;11536;50.860;4.286;2024-02-26T05:40:16;6.75;;;3.28;;
22737;SDS011;11536;50.860;4.286;2024-02-26T05:42:42;7.15;;;3.70;;
22737;SDS011;11536;50.860;4.286;2024-02-26T05:45:10;8.43;;;3.83;;
22737;SDS011;11536;50.860;4.286;2024-02-26T05:47:36;7.43;;;3.85;;
22737;SDS011;11536;50.860;4.286;2024-02-26T05:50:07;9.43;;;4.93;;
22737;SDS011;11536;50.860;4.286;2024-02-26T05:52:36;8.57;;;3.90;;
22737;SDS011;11536;50.860;4.286;2024-02-26T05:55:03;9.30;;;4.30;;
22737;SDS011;11536;50.860;4.286;2024-02-26T05:57:29;9.88;;;4.72;;
22737;SDS011;11536;50.860;4.286;2024-02-26T05:59:55;10.40;;;4.55;;
22737;SDS011;11536;50.860;4.286;2024-02-26T06:02:21;9.23;;;4.95;;
22737;SDS011;11536;50.860;4.286;2024-02-26T06:04:47;9.30;;;5.10;;
22737;SDS011;11536;50.860;4.286;2024-02-26T06:07:13;8.18;;;4.78;;
22737;SDS011;11536;50.860;4.286;2024-02-26T06:09:38;8.70;;;4.95;;
22737;SDS011;11536;50.860;4.286;2024-02-26T06:12:04;8.52;;;4.25;;
22737;SDS011;11536;50.860;4.286;2024-02-26T06:14:30;10.02;;;5.43;;
22737;SDS011;11536;50.860;4.286;2024-02-26T06:16:57;8.40;;;4.22;;
22737;SDS011;11536;50.860;4.286;2024-02-26T06:19:23;8.38;;;4.63;;
22737;SDS011;11536;50.860;4.286;2024-02-26T06:21:48;7.13;;;4.28;;
22737;SDS011;11536;50.860;4.286;2024-02-26T06:24:15;7.57;;;4.30;;
22737;SDS011;11536;50.860;4.286;2024-02-26T06:26:40;7.28;;;4.30;;
22737;SDS011;11536;50.860;4.286;2024-02-26T06:29:06;7.53;;;4.28;;
22737;SDS011;11536;50.860;4.286;2024-02-26T06:31:31;9.15;;;4.25;;
22737;SDS011;11536;50.860;4.286;2024-02-26T06:33:57;8.00;;;4.63;;
22737;SDS011;11536;50.860;4.286;2024-02-26T06:36:23;9.07;;;4.65;;
22737;SDS011;11536;50.860;4.286;2024-02-26T06:38:48;8.32;;;4.15;;
22737;SDS011;11536;50.860;4.286;2024-02-26T06:41:14;7.35;;;4.10;;
22737;SDS011;11536;50.860;4.286;2024-02-26T06:43:40;8.18;;;4.55;;
22737;SDS011;11536;50.860;4.286;2024-02-26T06:46:05;8.95;;;4.53;;
22737;SDS011;11536;50.860;4.286;2024-02-26T06:48:31;7.10;;;4.00;;
22737;SDS011;11536;50.860;4.286;2024-02-26T06:50:57;7.40;;;4.00;;
22737;SDS011;11536;50.860;4.286;2024-02-26T06:53:22;7.95;;;4.25;;
22737;SDS011;11536;50.860;4.286;2024-02-26T06:55:48;8.10;;;4.18;;
22737;SDS011;11536;50.860;4.286;2024-02-26T06:58:15;9.65;;;4.22;;
22737;SDS011;11536;50.860;4.286;2024-02-26T07:00:40;6.07;;;3.50;;
22737;SDS011;11536;50.860;4.286;2024-02-26T07:03:06;7.15;;;4.10;;
22737;SDS011;11536;50.860;4.286;2024-02-26T07:05:32;7.03;;;3.95;;
22737;SDS011;11536;50.860;4.286;2024-02-26T07:07:57;10.18;;;4.78;;
22737;SDS011;11536;50.860;4.286;2024-02-26T07:10:23;8.07;;;4.75;;
22737;SDS011;11536;50.860;4.286;2024-02-26T07:12:48;7.75;;;4.28;;
22737;SDS011;11536;50.860;4.286;2024-02-26T07:15:14;9.27;;;4.50;;
22737;SDS011;11536;50.860;4.286;2024-02-26T07:17:40;7.78;;;4.78;;
22737;SDS011;11536;50.860;4.286;2024-02-26T07:20:12;7.07;;;4.35;;
22737;SDS011;11536;50.860;4.286;2024-02-26T07:22:39;7.07;;;4.53;;
22737;SDS011;11536;50.860;4.286;2024-02-26T07:25:04;8.65;;;4.32;;
22737;SDS011;11536;50.860;4.286;2024-02-26T07:27:32;7.03;;;4.18;;
22737;SDS011;11536;50.860;4.286;2024-02-26T07:29:58;8.95;;;4.57;;
22737;SDS011;11536;50.860;4.286;2024-02-26T07:32:24;9.13;;;5.03;;
22737;SDS011;11536;50.860;4.286;2024-02-26T07:34:49;10.45;;;4.57;;
22737;SDS011;11536;50.860;4.286;2024-02-26T07:37:15;7.35;;;3.85;;
22737;SDS011;11536;50.860;4.286;2024-02-26T07:39:40;7.88;;;4.63;;
22737;SDS011;11536;50.860;4.286;2024-02-26T07:42:06;8.02;;;4.90;;
22737;SDS011;11536;50.860;4.286;2024-02-26T07:44:32;8.88;;;4.72;;
22737;SDS011;11536;50.860;4.286;2024-02-26T07:46:58;9.27;;;4.45;;
22737;SDS011;11536;50.860;4.286;2024-02-26T07:49:24;7.90;;;4.65;;
22737;SDS011;11536;50.860;4.286;2024-02-26T07:51:49;9.77;;;4.25;;
22737;SDS011;11536;50.860;4.286;2024-02-26T07:54:15;7.63;;;4.47;;
22737;SDS011;11536;50.860;4.286;2024-02-26T07:56:41;7.07;;;4.32;;
22737;SDS011;11536;50.860;4.286;2024-02-26T07:59:07;6.90;;;4.40;;
22737;SDS011;11536;50.860;4.286;2024-02-26T08:01:32;9.98;;;4.53;;
22737;SDS011;11536;50.860;4.286;2024-02-26T08:03:59;7.32;;;4.07;;
22737;SDS011;11536;50.860;4.286;2024-02-26T08:06:25;6.78;;;3.85;;
22737;SDS011;11536;50.860;4.286;2024-02-26T08:08:50;6.93;;;3.78;;
22737;SDS011;11536;50.860;4.286;2024-02-26T08:11:16;6.40;;;3.80;;
22737;SDS011;11536;50.860;4.286;2024-02-26T08:13:41;6.78;;;3.60;;
22737;SDS011;11536;50.860;4.286;2024-02-26T08:16:10;7.40;;;3.75;;
22737;SDS011;11536;50.860;4.286;2024-02-26T08:18:37;7.22;;;3.85;;
22737;SDS011;11536;50.860;4.286;2024-02-26T08:21:02;6.60;;;3.50;;
22737;SDS011;11536;50.860;4.286;2024-02-26T08:23:28;7.60;;;3.40;;
22737;SDS011;11536;50.860;4.286;2024-02-26T08:25:54;7.38;;;3.95;;
22737;SDS011;11536;50.860;4.286;2024-02-26T08:28:19;7.00;;;3.78;;
22737;SDS011;11536;50.860;4.286;2024-02-26T08:30:45;7.38;;;4.22;;
22737;SDS011;11536;50.860;4.286;2024-02-26T08:33:11;6.47;;;3.80;;
22737;SDS011;11536;50.860;4.286;2024-02-26T08:35:36;9.68;;;3.90;;
22737;SDS011;11536;50.860;4.286;2024-02-26T08:38:02;7.13;;;3.80;;
22737;SDS011;11536;50.860;4.286;2024-02-26T08:40:28;5.97;;;3.40;;
22737;SDS011;11536;50.860;4.286;2024-02-26T08:42:54;5.20;;;3.00;;
22737;SDS011;11536;50.860;4.286;2024-02-26T08:45:20;6.18;;;3.53;;
22737;SDS011;11536;50.860;4.286;2024-02-26T08:47:46;7.38;;;3.88;;
22737;SDS011;11536;50.860;4.286;2024-02-26T08:50:12;6.20;;;3.47;;
22737;SDS011;11536;50.860;4.286;2024-02-26T08:52:38;6.75;;;3.83;;
22737;SDS011;11536;50.860;4.286;2024-02-26T08:55:05;8.77;;;3.78;;
22737;SDS011;11536;50.860;4.286;2024-02-26T08:57:31;7.38;;;3.15;;
22737;SDS011;11536;50.860;4.286;2024-02-26T08:59:59;6.70;;;3.58;;
22737;SDS011;11536;50.860;4.286;2024-02-26T09:02:25;7.72;;;3.50;;
22737;SDS011;11536;50.860;4.286;2024-02-26T09:04:51;7.95;;;3.88;;
22737;SDS011;11536;50.860;4.286;2024-02-26T09:07:19;6.20;;;3.85;;
22737;SDS011;11536;50.860;4.286;2024-02-26T09:09:44;6.13;;;3.60;;
22737;SDS011;11536;50.860;4.286;2024-02-26T09:12:10;7.50;;;3.35;;
22737;SDS011;11536;50.860;4.286;2024-02-26T09:14:36;8.13;;;3.75;;
22737;SDS011;11536;50.860;4.286;2024-02-26T09:17:01;6.65;;;3.70;;
22737;SDS011;11536;50.860;4.286;2024-02-26T09:19:27;8.85;;;4.22;;
22737;SDS011;11536;50.860;4.286;2024-02-26T09:21:53;6.60;;;3.28;;
22737;SDS011;11536;50.860;4.286;2024-02-26T09:24:22;5.65;;;2.97;;
22737;SDS011;11536;50.860;4.286;2024-02-26T09:26:48;5.57;;;3.30;;
22737;SDS011;11536;50.860;4.286;2024-02-26T09:29:14;6.28;;;3.60;;
22737;SDS011;11536;50.860;4.286;2024-02-26T09:31:39;8.15;;;3.97;;
22737;SDS011;11536;50.860;4.286;2024-02-26T09:34:06;6.18;;;3.30;;
22737;SDS011;11536;50.860;4.286;2024-02-26T09:36:33;6.47;;;3.65;;
22737;SDS011;11536;50.860;4.286;2024-02-26T09:38:59;7.72;;;3.55;;
22737;SDS011;11536;50.860;4.286;2024-02-26T09:41:24;6.75;;;3.75;;
22737;SDS011;11536;50.860;4.286;2024-02-26T09:43:55;6.28;;;3.75;;
22737;SDS011;11536;50.860;4.286;2024-02-26T09:46:22;7.75;;;3.85;;
22737;SDS011;11536;50.860;4.286;2024-02-26T09:48:51;7.57;;;3.72;;
22737;SDS011;11536;50.860;4.286;2024-02-26T09:51:17;6.00;;;3.20;;
22737;SDS011;11536;50.860;4.286;2024-02-26T09:53:44;8.30;;;3.45;;
22737;SDS011;11536;50.860;4.286;2024-02-26T09:56:12;6.10;;;3.40;;
22737;SDS011;11536;50.860;4.286;2024-02-26T09:58:38;7.28;;;3.60;;
22737;SDS011;11536;50.860;4.286;2024-02-26T10:01:10;7.70;;;4.20;;
22737;SDS011;11536;50.860;4.286;2024-02-26T10:03:38;6.85;;;3.58;;
22737;SDS011;11536;50.860;4.286;2024-02-26T10:06:09;7.05;;;3.72;;
22737;SDS011;11536;50.860;4.286;2024-02-26T10:08:36;7.78;;;3.90;;
22737;SDS011;11536;50.860;4.286;2024-02-26T10:11:02;6.05;;;3.40;;
22737;SDS011;11536;50.860;4.286;2024-02-26T10:13:29;7.95;;;4.00;;
22737;SDS011;11536;50.860;4.286;2024-02-26T10:15:55;6.43;;;3.47;;
22737;SDS011;11536;50.860;4.286;2024-02-26T10:18:22;6.43;;;3.28;;
22737;SDS011;11536;50.860;4.286;2024-02-26T10:21:01;6.70;;;3.50;;
22737;SDS011;11536;50.860;4.286;2024-02-26T10:23:27;6.55;;;3.30;;
22737;SDS011;11536;50.860;4.286;2024-02-26T10:25:56;7.00;;;3.53;;
22737;SDS011;11536;50.860;4.286;2024-02-26T10:28:22;7.13;;;3.35;;
22737;SDS011;11536;50.860;4.286;2024-02-26T10:30:48;5.68;;;2.95;;
22737;SDS011;11536;50.860;4.286;2024-02-26T10:33:13;7.28;;;3.33;;
22737;SDS011;11536;50.860;4.286;2024-02-26T10:35:39;6.15;;;3.20;;
22737;SDS011;11536;50.860;4.286;2024-02-26T10:38:10;6.97;;;3.13;;
22737;SDS011;11536;50.860;4.286;2024-02-26T10:40:36;6.90;;;3.38;;
22737;SDS011;11536;50.860;4.286;2024-02-26T10:43:02;5.25;;;2.85;;
22737;SDS011;11536;50.860;4.286;2024-02-26T10:45:28;6.07;;;2.83;;
22737;SDS011;11536;50.860;4.286;2024-02-26T10:47:53;5.10;;;2.65;;
22737;SDS011;11536;50.860;4.286;2024-02-26T10:50:19;5.40;;;2.80;;
22737;SDS011;11536;50.860;4.286;2024-02-26T10:52:45;5.03;;;2.75;;
22737;SDS011;11536;50.860;4.286;2024-02-26T10:55:14;5.68;;;2.83;;
22737;SDS011;11536;50.860;4.286;2024-02-26T10:57:45;5.40;;;2.63;;
22737;SDS011;11536;50.860;4.286;2024-02-26T11:00:14;5.90;;;2.40;;
22737;SDS011;11536;50.860;4.286;2024-02-26T11:02:41;5.88;;;2.80;;
22737;SDS011;11536;50.860;4.286;2024-02-26T11:05:07;6.50;;;2.78;;
22737;SDS011;11536;50.860;4.286;2024-02-26T11:07:36;5.57;;;2.65;;
22737;SDS011;11536;50.860;4.286;2024-02-26T11:10:02;6.35;;;2.45;;
22737;SDS011;11536;50.860;4.286;2024-02-26T11:12:30;7.10;;;2.03;;
22737;SDS011;11536;50.860;4.286;2024-02-26T11:14:59;4.15;;;1.85;;
22737;SDS011;11536;50.860;4.286;2024-02-26T11:17:27;5.45;;;2.30;;
22737;SDS011;11536;50.860;4.286;2024-02-26T11:19:56;5.22;;;2.30;;
22737;SDS011;11536;50.860;4.286;2024-02-26T11:22:23;7.63;;;2.35;;
22737;SDS011;11536;50.860;4.286;2024-02-26T11:24:51;4.50;;;1.90;;
22737;SDS011;11536;50.860;4.286;2024-02-26T11:27:31;4.22;;;1.65;;
22737;SDS011;11536;50.860;4.286;2024-02-26T11:30:09;4.70;;;2.13;;
22737;SDS011;11536;50.860;4.286;2024-02-26T11:32:35;5.07;;;2.10;;
22737;SDS011;11536;50.860;4.286;2024-02-26T11:35:02;5.20;;;1.80;;
22737;SDS011;11536;50.860;4.286;2024-02-26T11:37:30;4.30;;;2.00;;
22737;SDS011;11536;50.860;4.286;2024-02-26T11:39:58;4.00;;;1.60;;
22737;SDS011;11536;50.860;4.286;2024-02-26T11:42:27;3.97;;;1.65;;
22737;SDS011;11536;50.860;4.286;2024-02-26T11:44:56;2.88;;;1.58;;
22737;SDS011;11536;50.860;4.286;2024-02-26T11:47:25;4.63;;;1.63;;
22737;SDS011;11536;50.860;4.286;2024-02-26T11:49:52;3.10;;;1.48;;
22737;SDS011;11536;50.860;4.286;2024-02-26T11:52:18;5.13;;;2.15;;
22737;SDS011;11536;50.860;4.286;2024-02-26T11:54:50;4.70;;;1.95;;
22737;SDS011;11536;50.860;4.286;2024-02-26T12:00:10;4.97;;;1.90;;
22737;SDS011;11536;50.860;4.286;2024-02-26T12:02:40;5.80;;;2.35;;
22737;SDS011;11536;50.860;4.286;2024-02-26T12:05:22;5.30;;;1.80;;
22737;SDS011;11536;50.860;4.286;2024-02-26T12:07:49;5.63;;;1.95;;
22737;SDS011;11536;50.860;4.286;2024-02-26T12:10:30;4.57;;;2.10;;
22737;SDS011;11536;50.860;4.286;2024-02-26T12:13:02;4.22;;;2.20;;
22737;SDS011;11536;50.860;4.286;2024-02-26T12:15:32;4.78;;;2.10;;
22737;SDS011;11536;50.860;4.286;2024-02-26T12:18:01;4.65;;;2.25;;
22737;SDS011;11536;50.860;4.286;2024-02-26T12:20:28;4.90;;;2.15;;
22737;SDS011;11536;50.860;4.286;2024-02-26T12:22:54;4.53;;;2.10;;
22737;SDS011;11536;50.860;4.286;2024-02-26T12:25:28;3.90;;;2.05;;
22737;SDS011;11536;50.860;4.286;2024-02-26T12:27:54;4.85;;;2.30;;
22737;SDS011;11536;50.860;4.286;2024-02-26T12:30:21;4.18;;;2.05;;
22737;SDS011;11536;50.860;4.286;2024-02-26T12:32:51;4.38;;;2.00;;
22737;SDS011;11536;50.860;4.286;2024-02-26T12:35:22;4.32;;;2.17;;
22737;SDS011;11536;50.860;4.286;2024-02-26T12:37:51;4.18;;;1.92;;
22737;SDS011;11536;50.860;4.286;2024-02-26T12:40:20;5.55;;;2.60;;
22737;SDS011;11536;50.860;4.286;2024-02-26T12:42:46;4.70;;;2.03;;
22737;SDS011;11536;50.860;4.286;2024-02-26T12:45:13;4.93;;;2.28;;
22737;SDS011;11536;50.860;4.286;2024-02-26T12:47:41;5.07;;;1.90;;
22737;SDS011;11536;50.860;4.286;2024-02-26T12:50:08;4.60;;;2.10;;
22737;SDS011;11536;50.860;4.286;2024-02-26T12:52:37;5.20;;;2.10;;
22737;SDS011;11536;50.860;4.286;2024-02-26T12:55:08;4.23;;;2.20;;
22737;SDS011;11536;50.860;4.286;2024-02-26T12:57:37;5.43;;;2.40;;
22737;SDS011;11536;50.860;4.286;2024-02-26T13:00:06;4.07;;;2.13;;
22737;SDS011;11536;50.860;4.286;2024-02-26T13:02:36;5.80;;;2.60;;
22737;SDS011;11536;50.860;4.286;2024-02-26T13:05:03;6.35;;;2.80;;
22737;SDS011;11536;50.860;4.286;2024-02-26T13:07:38;5.50;;;2.38;;
22737;SDS011;11536;50.860;4.286;2024-02-26T13:10:13;6.53;;;2.72;;
22737;SDS011;11536;50.860;4.286;2024-02-26T13:12:46;5.80;;;2.95;;
22737;SDS011;11536;50.860;4.286;2024-02-26T13:15:15;5.47;;;2.60;;
22737;SDS011;11536;50.860;4.286;2024-02-26T13:17:42;5.80;;;2.70;;
22737;SDS011;11536;50.860;4.286;2024-02-26T13:20:09;5.72;;;2.65;;
22737;SDS011;11536;50.860;4.286;2024-02-26T13:22:35;5.97;;;2.78;;
22737;SDS011;11536;50.860;4.286;2024-02-26T13:25:01;5.22;;;2.60;;
22737;SDS011;11536;50.860;4.286;2024-02-26T13:27:28;6.75;;;2.75;;
22737;SDS011;11536;50.860;4.286;2024-02-26T13:32:33;5.38;;;2.67;;
22737;SDS011;11536;50.860;4.286;2024-02-26T13:35:10;6.90;;;3.00;;
22737;SDS011;11536;50.860;4.286;2024-02-26T13:37:37;6.43;;;2.90;;
22737;SDS011;11536;50.860;4.286;2024-02-26T13:40:04;7.60;;;3.25;;
22737;SDS011;11536;50.860;4.286;2024-02-26T13:42:31;7.65;;;2.92;;
22737;SDS011;11536;50.860;4.286;2024-02-26T13:44:56;7.10;;;2.85;;
22737;SDS011;11536;50.860;4.286;2024-02-26T13:47:22;7.75;;;3.42;;
22737;SDS011;11536;50.860;4.286;2024-02-26T13:49:47;8.15;;;3.20;;
22737;SDS011;11536;50.860;4.286;2024-02-26T13:52:13;5.38;;;2.80;;
22737;SDS011;11536;50.860;4.286;2024-02-26T13:54:39;6.32;;;2.85;;
22737;SDS011;11536;50.860;4.286;2024-02-26T13:57:05;6.20;;;3.28;;
22737;SDS011;11536;50.860;4.286;2024-02-26T13:59:32;6.32;;;3.13;;
22737;SDS011;11536;50.860;4.286;2024-02-26T14:01:57;6.18;;;3.20;;
22737;SDS011;11536;50.860;4.286;2024-02-26T14:04:23;6.22;;;2.95;;
22737;SDS011;11536;50.860;4.286;2024-02-26T14:06:48;6.38;;;3.28;;
22737;SDS011;11536;50.860;4.286;2024-02-26T14:09:14;7.40;;;3.42;;
22737;SDS011;11536;50.860;4.286;2024-02-26T14:11:45;8.73;;;3.40;;
22737;SDS011;11536;50.860;4.286;2024-02-26T14:14:10;6.25;;;2.67;;
22737;SDS011;11536;50.860;4.286;2024-02-26T14:16:36;6.50;;;3.25;;
22737;SDS011;11536;50.860;4.286;2024-02-26T14:19:01;7.20;;;3.45;;
22737;SDS011;11536;50.860;4.286;2024-02-26T14:21:28;6.80;;;2.78;;
22737;SDS011;11536;50.860;4.286;2024-02-26T14:23:54;7.22;;;3.05;;
22737;SDS011;11536;50.860;4.286;2024-02-26T14:26:22;7.40;;;3.08;;
22737;SDS011;11536;50.860;4.286;2024-02-26T14:28:48;7.15;;;3.13;;
22737;SDS011;11536;50.860;4.286;2024-02-26T14:31:16;8.07;;;2.72;;
22737;SDS011;11536;50.860;4.286;2024-02-26T14:33:42;6.75;;;3.42;;
22737;SDS011;11536;50.860;4.286;2024-02-26T14:36:08;9.65;;;3.15;;
22737;SDS011;11536;50.860;4.286;2024-02-26T14:38:34;8.88;;;3.33;;
22737;SDS011;11536;50.860;4.286;2024-02-26T14:41:00;7.35;;;3.22;;
22737;SDS011;11536;50.860;4.286;2024-02-26T14:43:25;7.78;;;3.58;;
22737;SDS011;11536;50.860;4.286;2024-02-26T14:45:51;7.35;;;3.15;;
22737;SDS011;11536;50.860;4.286;2024-02-26T14:48:16;8.60;;;3.47;;
22737;SDS011;11536;50.860;4.286;2024-02-26T14:50:42;8.05;;;3.40;;